Terminal Aerodrome Forecast
Issued by NWS Wilmington, OH

Home | Current Version | Previous Version | Text Only | Print | Product List | Glossary On
Versions: 1 2 3 4 5 6 7 8 9 10 11 12 13 14 15 16 17 18 19 20 21
000
FTUS41 KILN 051100 RRA
TAFCVG
TAF
KCVG 051143Z 0512/0618 20004KT P6SM SCT080
     FM051500 23010KT P6SM SCT060
     FM060000 VRB03KT P6SM SKC
     FM061500 25007KT P6SM SCT060=

USA.gov is the U.S. government's official web portal to all federal, state and local government web resources and services.